createdAt,value
2019-05-14T00:01:38.832Z,7.60
2019-05-14T00:04:05.959Z,7.50
2019-05-14T00:06:36.228Z,7.40
2019-05-14T00:09:04.580Z,7.40
2019-05-14T00:11:31.971Z,7.40
2019-05-14T00:14:01.304Z,7.30
2019-05-14T00:16:28.823Z,7.30
2019-05-14T00:18:56.407Z,7.20
2019-05-14T00:21:23.464Z,7.20
2019-05-14T00:23:51.406Z,7.10
2019-05-14T00:26:18.848Z,7.00
2019-05-14T00:28:46.375Z,7.00
2019-05-14T00:31:13.809Z,7.00
2019-05-14T00:33:41.924Z,6.90
2019-05-14T00:36:11.130Z,6.90
2019-05-14T00:38:38.398Z,6.80
2019-05-14T00:41:05.640Z,6.80
2019-05-14T00:43:33.445Z,6.80
2019-05-14T00:46:01.708Z,6.80
2019-05-14T00:48:31.198Z,6.80
2019-05-14T00:50:58.765Z,6.80
2019-05-14T00:53:26.161Z,6.80
2019-05-14T00:55:53.302Z,6.80
2019-05-14T00:58:21.827Z,6.80
2019-05-14T01:00:49.021Z,6.80
2019-05-14T01:03:16.551Z,6.80
2019-05-14T01:05:44.198Z,6.80
2019-05-14T01:08:12.070Z,6.80
2019-05-14T01:10:41.604Z,6.70
2019-05-14T01:13:08.567Z,6.70
2019-05-14T01:15:35.667Z,6.70
2019-05-14T01:18:02.907Z,6.70
2019-05-14T01:20:31.909Z,6.70
2019-05-14T01:22:59.024Z,6.60
2019-05-14T01:25:26.409Z,6.60
2019-05-14T01:27:53.591Z,6.60
2019-05-14T01:30:21.411Z,6.50
2019-05-14T01:32:51.086Z,6.50
2019-05-14T01:35:17.974Z,6.40
2019-05-14T01:37:45.273Z,6.40
2019-05-14T01:40:12.832Z,6.40
2019-05-14T01:42:41.560Z,6.30
2019-05-14T01:45:23.530Z,6.30
2019-05-14T01:47:38.146Z,6.30
2019-05-14T01:50:06.375Z,6.30
2019-05-14T01:52:41.506Z,6.20
2019-05-14T01:55:11.206Z,6.20
2019-05-14T01:57:37.676Z,6.20
2019-05-14T02:00:06.888Z,6.20
2019-05-14T02:02:34.566Z,6.10
2019-05-14T02:05:02.151Z,6.10
2019-05-14T02:07:31.305Z,6.10
2019-05-14T02:09:58.304Z,6.10
2019-05-14T02:12:26.131Z,6.10
2019-05-14T02:14:53.378Z,6.10
2019-05-14T02:17:21.256Z,6.10
2019-05-14T02:19:51.276Z,6.10
2019-05-14T02:22:18.224Z,6.10
2019-05-14T02:24:45.998Z,6.10
2019-05-14T02:27:13.621Z,6.10
2019-05-14T02:29:41.658Z,6.10
2019-05-14T02:32:10.550Z,6.10
2019-05-14T02:34:39.778Z,6.00
2019-05-14T02:37:09.257Z,6.00
2019-05-14T02:39:36.009Z,5.90
2019-05-14T02:42:03.473Z,5.90
2019-05-14T02:44:30.787Z,5.90
2019-05-14T02:46:59.152Z,5.80
2019-05-14T02:49:29.699Z,5.80
2019-05-14T02:51:58.838Z,5.80
2019-05-14T02:54:25.053Z,5.80
2019-05-14T02:56:52.228Z,5.80
2019-05-14T02:59:19.839Z,5.80
2019-05-14T03:01:49.425Z,5.90
2019-05-14T03:04:19.525Z,5.90
2019-05-14T03:06:45.165Z,5.90
2019-05-14T03:09:12.501Z,5.90
2019-05-14T03:11:40.725Z,5.90
2019-05-14T03:14:09.062Z,6.00
2019-05-14T03:16:40.042Z,6.00
2019-05-14T03:19:05.723Z,6.00
2019-05-14T03:21:34.078Z,6.00
2019-05-14T03:24:01.233Z,6.00
2019-05-14T03:26:29.704Z,6.00
2019-05-14T03:28:59.963Z,6.00
2019-05-14T03:31:32.300Z,6.00
2019-05-14T03:33:55.264Z,5.90
2019-05-14T03:36:26.463Z,5.90
2019-05-14T03:38:52.384Z,5.90
2019-05-14T03:41:19.878Z,5.80
2019-05-14T03:43:49.336Z,5.90
2019-05-14T03:46:20.686Z,5.80
2019-05-14T03:48:49.441Z,5.80
2019-05-14T03:51:16.781Z,5.80
2019-05-14T03:54:00.611Z,5.80
2019-05-14T03:56:14.012Z,5.80
2019-05-14T03:58:41.452Z,5.80
2019-05-14T04:01:09.702Z,5.80
2019-05-14T04:03:39.926Z,5.90
2019-05-14T04:06:10.072Z,5.90
2019-05-14T04:08:39.695Z,5.90
2019-05-14T04:11:09.561Z,5.90
2019-05-14T04:13:40.543Z,5.90
2019-05-14T04:16:10.783Z,5.90
2019-05-14T04:18:40.444Z,6.00
2019-05-14T04:21:10.346Z,6.00
2019-05-14T04:23:40.075Z,6.10
2019-05-14T04:26:09.448Z,6.20
2019-05-14T04:28:39.499Z,6.50
2019-05-14T04:31:09.498Z,6.80
2019-05-14T04:33:39.280Z,7.10
2019-05-14T04:36:09.879Z,7.40
2019-05-14T04:38:36.373Z,7.80
2019-05-14T04:41:03.232Z,8.10
2019-05-14T04:43:30.689Z,8.40
2019-05-14T04:45:59.178Z,8.80
2019-05-14T04:48:33.787Z,9.10
2019-05-14T04:50:56.324Z,9.40
2019-05-14T04:53:23.734Z,9.60
2019-05-14T04:55:50.882Z,9.70
2019-05-14T04:58:21.675Z,9.90
2019-05-14T05:00:49.967Z,10.20
2019-05-14T05:03:19.269Z,10.40
2019-05-14T05:05:45.383Z,10.50
2019-05-14T05:08:14.318Z,10.50
2019-05-14T05:10:42.120Z,10.60
2019-05-14T05:13:09.339Z,10.80
2019-05-14T05:15:39.359Z,10.90
2019-05-14T05:18:05.877Z,11.00
2019-05-14T05:20:33.699Z,11.20
2019-05-14T05:23:01.088Z,11.40
2019-05-14T05:25:29.208Z,11.70
2019-05-14T05:27:59.660Z,11.90
2019-05-14T05:30:25.710Z,12.00
2019-05-14T05:32:52.981Z,12.20
2019-05-14T05:35:20.318Z,12.80
2019-05-14T05:37:49.036Z,13.00
2019-05-14T05:40:19.473Z,13.00
2019-05-14T05:42:45.522Z,13.00
2019-05-14T05:45:14.278Z,13.30
2019-05-14T05:47:54.373Z,13.60
2019-05-14T05:50:10.867Z,13.70
2019-05-14T05:52:38.692Z,13.80
2019-05-14T05:55:08.883Z,13.70
2019-05-14T05:57:39.006Z,13.40
2019-05-14T06:00:09.443Z,13.40
2019-05-14T06:02:39.616Z,13.30
2019-05-14T06:05:08.042Z,13.50
2019-05-14T06:07:35.027Z,13.60
2019-05-14T06:10:02.372Z,13.60
2019-05-14T06:12:29.768Z,13.90
2019-05-14T06:14:57.902Z,14.20
2019-05-14T06:17:25.380Z,14.10
2019-05-14T06:19:52.386Z,14.20
2019-05-14T06:22:19.756Z,14.30
2019-05-14T06:24:48.565Z,14.60
2019-05-14T06:27:18.154Z,14.90
2019-05-14T06:29:48.696Z,15.20
2019-05-14T06:32:15.418Z,15.30
2019-05-14T06:34:42.558Z,15.70
2019-05-14T06:37:09.624Z,16.40
2019-05-14T06:39:39.052Z,16.60
2019-05-14T06:42:08.639Z,16.50
2019-05-14T06:44:35.162Z,16.40
2019-05-14T06:47:02.438Z,16.60
2019-05-14T06:49:32.654Z,16.80
2019-05-14T06:51:59.574Z,16.50
2019-05-14T06:54:29.262Z,16.60
2019-05-14T06:56:58.288Z,16.70
2019-05-14T06:59:25.433Z,16.70
2019-05-14T07:01:52.471Z,16.70
2019-05-14T07:04:19.816Z,17.00
2019-05-14T07:06:48.498Z,17.10
2019-05-14T07:09:18.018Z,17.50
2019-05-14T07:11:45.037Z,17.90
2019-05-14T07:14:12.171Z,18.10
2019-05-14T07:16:39.245Z,18.90
2019-05-14T07:19:06.297Z,19.50
2019-05-14T07:21:33.786Z,19.60
2019-05-14T07:24:01.303Z,19.80
2019-05-14T07:26:29.501Z,19.90
2019-05-14T07:28:59.069Z,20.60
2019-05-14T07:31:28.890Z,20.90
2019-05-14T07:33:58.075Z,21.30
2019-05-14T07:36:24.637Z,21.30
2019-05-14T07:38:51.568Z,21.20
2019-05-14T07:41:22.051Z,21.40
2019-05-14T07:43:49.180Z,21.80
2019-05-14T07:46:19.000Z,22.40
2019-05-14T07:49:00.599Z,22.90
2019-05-14T07:51:15.061Z,23.10
2019-05-14T07:53:42.612Z,23.30
2019-05-14T07:56:10.003Z,23.30
2019-05-14T07:58:38.724Z,23.40
2019-05-14T08:01:06.197Z,23.70
2019-05-14T08:03:33.572Z,24.00
2019-05-14T08:06:08.088Z,24.10
2019-05-14T08:08:35.066Z,24.70
2019-05-14T08:11:02.369Z,25.00
2019-05-14T08:13:32.646Z,25.30
2019-05-14T08:16:00.128Z,25.90
2019-05-14T08:18:29.135Z,25.90
2019-05-14T08:20:58.956Z,26.20
2019-05-14T08:23:28.203Z,26.20
2019-05-14T08:25:55.327Z,25.80
2019-05-14T08:28:22.512Z,25.60
2019-05-14T08:30:49.541Z,25.80
2019-05-14T08:33:18.422Z,25.50
2019-05-14T08:35:45.744Z,25.50
2019-05-14T08:38:13.008Z,25.60
2019-05-14T08:40:39.950Z,25.80
2019-05-14T08:43:09.078Z,26.10
2019-05-14T08:45:36.319Z,26.10
2019-05-14T08:48:03.763Z,25.10
2019-05-14T08:50:31.006Z,24.70
2019-05-14T08:52:58.523Z,25.20
2019-05-14T08:55:26.186Z,26.00
2019-05-14T08:57:53.590Z,26.40
2019-05-14T09:00:20.985Z,26.70
2019-05-14T09:02:49.347Z,26.90
2019-05-14T09:05:18.269Z,26.80
2019-05-14T09:07:45.937Z,26.20
2019-05-14T09:10:13.561Z,26.30
2019-05-14T09:12:40.596Z,27.00
2019-05-14T09:15:09.767Z,27.40
2019-05-14T09:17:39.112Z,27.40
2019-05-14T09:20:08.491Z,27.60
2019-05-14T09:22:35.976Z,28.50
2019-05-14T09:25:04.644Z,29.30
2019-05-14T09:27:31.968Z,28.70
2019-05-14T09:29:59.291Z,28.50
2019-05-14T09:32:28.941Z,27.50
2019-05-14T09:34:55.513Z,26.70
2019-05-14T09:37:22.391Z,26.20
2019-05-14T09:39:49.495Z,25.50
2019-05-14T09:42:19.570Z,24.60
2019-05-14T09:44:48.847Z,24.80
2019-05-14T09:47:15.719Z,25.50
2019-05-14T09:49:43.395Z,25.80
2019-05-14T09:52:10.531Z,26.70
2019-05-14T09:54:41.583Z,27.00
2019-05-14T09:57:08.342Z,26.80
2019-05-14T09:59:35.667Z,26.50
2019-05-14T10:02:03.884Z,26.20
2019-05-14T10:04:30.946Z,26.00
2019-05-14T10:06:59.237Z,25.40
2019-05-14T10:09:28.946Z,25.60
2019-05-14T10:11:58.028Z,26.70
2019-05-14T10:14:25.441Z,26.90
2019-05-14T10:16:52.651Z,26.10
2019-05-14T10:19:19.595Z,25.00
2019-05-14T10:21:49.214Z,24.30
2019-05-14T10:24:18.554Z,24.80
2019-05-14T10:26:48.264Z,26.10
2019-05-14T10:29:15.075Z,27.60
2019-05-14T10:31:42.421Z,27.60
2019-05-14T10:34:09.400Z,26.60
2019-05-14T10:36:36.974Z,25.90
2019-05-14T10:39:05.741Z,25.30
2019-05-14T10:41:33.278Z,24.60
2019-05-14T10:44:00.521Z,24.00
2019-05-14T10:46:29.060Z,24.40
2019-05-14T10:49:00.226Z,24.70
2019-05-14T10:51:28.342Z,24.50
2019-05-14T10:53:55.411Z,25.60
2019-05-14T10:56:22.772Z,27.20
2019-05-14T10:58:49.745Z,28.10
2019-05-14T11:01:22.385Z,27.30
2019-05-14T11:03:48.429Z,27.00
2019-05-14T11:06:15.232Z,26.80
2019-05-14T11:08:42.381Z,26.80
2019-05-14T11:11:10.780Z,27.00
2019-05-14T11:13:39.492Z,27.80
2019-05-14T11:16:08.646Z,28.10
2019-05-14T11:18:36.282Z,27.30
2019-05-14T11:21:18.481Z,27.80
2019-05-14T11:23:34.067Z,27.80
2019-05-14T11:26:01.513Z,28.20
2019-05-14T11:28:29.692Z,28.30
2019-05-14T11:30:57.168Z,28.90
2019-05-14T11:33:25.085Z,29.50
2019-05-14T11:35:52.186Z,29.60
2019-05-14T11:38:29.734Z,29.30
2019-05-14T11:40:49.591Z,28.80
2019-05-14T11:43:17.347Z,29.20
2019-05-14T11:45:44.552Z,29.80
2019-05-14T11:48:11.837Z,30.70
2019-05-14T11:50:39.370Z,29.80
2019-05-14T11:53:08.461Z,28.80
2019-05-14T11:55:38.616Z,28.60
2019-05-14T11:58:04.837Z,28.40
2019-05-14T12:00:31.983Z,27.60
2019-05-14T12:02:59.348Z,27.80
2019-05-14T12:05:30.273Z,28.30
2019-05-14T12:07:57.085Z,27.90
2019-05-14T12:10:24.367Z,28.10
2019-05-14T12:12:52.138Z,28.60
2019-05-14T12:15:19.331Z,28.80
2019-05-14T12:17:50.602Z,28.80
2019-05-14T12:20:16.294Z,30.10
2019-05-14T12:22:43.794Z,29.80
2019-05-14T12:25:11.542Z,28.90
2019-05-14T12:27:41.634Z,27.70
2019-05-14T12:30:09.739Z,26.80
2019-05-14T12:32:39.604Z,25.50
2019-05-14T12:35:08.577Z,23.70
2019-05-14T12:37:38.504Z,23.40
2019-05-14T12:40:05.000Z,24.00
2019-05-14T12:42:32.498Z,25.00
2019-05-14T12:45:00.134Z,25.70
2019-05-14T12:47:29.059Z,26.90
2019-05-14T12:49:58.726Z,27.00
2019-05-14T12:52:26.231Z,27.00
2019-05-14T12:54:53.676Z,26.60
2019-05-14T12:57:20.937Z,26.80
2019-05-14T12:59:48.736Z,27.20
2019-05-14T13:02:18.486Z,27.70
2019-05-14T13:04:45.036Z,28.00
2019-05-14T13:07:12.431Z,28.10
2019-05-14T13:09:39.850Z,28.40
2019-05-14T13:12:11.341Z,28.10
2019-05-14T13:14:36.130Z,27.10
2019-05-14T13:17:03.507Z,27.00
2019-05-14T13:19:30.547Z,27.10
2019-05-14T13:22:12.744Z,27.30
2019-05-14T13:24:30.457Z,27.50
2019-05-14T13:26:58.793Z,27.70
2019-05-14T13:29:28.740Z,27.20
2019-05-14T13:31:55.102Z,27.40
2019-05-14T13:34:22.278Z,28.20
2019-05-14T13:36:49.411Z,29.10
2019-05-14T13:39:19.217Z,29.00
2019-05-14T13:41:45.757Z,29.40
2019-05-14T13:44:24.481Z,29.10
2019-05-14T13:46:48.641Z,28.00
2019-05-14T13:49:18.877Z,27.20
2019-05-14T13:51:44.775Z,27.60
2019-05-14T13:54:11.860Z,28.10
2019-05-14T13:56:39.191Z,28.60
2019-05-14T13:59:09.125Z,28.40
2019-05-14T14:01:36.350Z,27.70
2019-05-14T14:04:11.152Z,26.10
2019-05-14T14:06:32.603Z,25.90
2019-05-14T14:09:00.211Z,26.10
2019-05-14T14:11:28.648Z,26.80
2019-05-14T14:13:58.495Z,27.70
2019-05-14T14:16:27.870Z,28.20
2019-05-14T14:18:54.648Z,26.80
2019-05-14T14:21:21.848Z,25.00
2019-05-14T14:23:52.051Z,23.80
2019-05-14T14:26:19.325Z,23.20
2019-05-14T14:28:49.444Z,23.30
2019-05-14T14:31:15.379Z,23.50
2019-05-14T14:33:42.848Z,24.10
2019-05-14T14:36:10.528Z,24.70
2019-05-14T14:38:40.203Z,25.40
2019-05-14T14:41:10.138Z,26.10
2019-05-14T14:43:42.357Z,26.30
2019-05-14T14:46:11.228Z,25.50
2019-05-14T14:48:34.522Z,25.00
2019-05-14T14:51:01.976Z,23.60
2019-05-14T14:53:45.944Z,22.90
2019-05-14T14:56:00.349Z,22.00
2019-05-14T14:58:28.623Z,21.20
2019-05-14T15:00:56.068Z,21.30
2019-05-14T15:03:23.531Z,22.30
2019-05-14T15:05:50.937Z,23.30
2019-05-14T15:08:20.127Z,24.30
2019-05-14T15:10:48.679Z,24.90
2019-05-14T15:13:16.081Z,24.30
2019-05-14T15:15:43.149Z,23.40
2019-05-14T15:18:13.602Z,22.40
2019-05-14T15:20:39.255Z,21.40
2019-05-14T15:23:09.833Z,20.70
2019-05-14T15:25:35.659Z,20.30
2019-05-14T15:28:03.238Z,20.60
2019-05-14T15:30:30.695Z,21.50
2019-05-14T15:32:59.741Z,22.00
2019-05-14T15:35:28.492Z,22.10
2019-05-14T15:37:58.820Z,21.40
2019-05-14T15:40:25.133Z,20.70
2019-05-14T15:42:52.416Z,19.90
2019-05-14T15:45:19.539Z,19.30
2019-05-14T15:47:48.427Z,19.10
2019-05-14T15:50:15.984Z,19.50
2019-05-14T15:52:42.997Z,20.40
2019-05-14T15:55:10.626Z,21.20
2019-05-14T15:57:39.781Z,21.80
2019-05-14T16:00:09.083Z,22.20
2019-05-14T16:02:39.189Z,22.10
2019-05-14T16:05:10.087Z,22.20
2019-05-14T16:07:39.076Z,21.00
2019-05-14T16:10:08.562Z,20.50
2019-05-14T16:12:35.768Z,19.10
2019-05-14T16:15:03.024Z,18.70
2019-05-14T16:17:30.524Z,18.60
2019-05-14T16:19:58.255Z,18.10
2019-05-14T16:22:25.523Z,17.80
2019-05-14T16:24:57.192Z,18.10
2019-05-14T16:27:22.190Z,18.30
2019-05-14T16:29:50.569Z,18.80
2019-05-14T16:32:18.024Z,19.30
2019-05-14T16:34:45.339Z,19.50
2019-05-14T16:37:12.556Z,19.30
2019-05-14T16:39:39.843Z,18.80
2019-05-14T16:42:07.581Z,18.20
2019-05-14T16:44:34.986Z,17.60
2019-05-14T16:47:02.215Z,17.30
2019-05-14T16:49:30.338Z,17.10
2019-05-14T16:51:59.654Z,16.90
2019-05-14T16:54:29.431Z,17.00
2019-05-14T16:56:56.230Z,17.10
2019-05-14T16:59:23.736Z,17.30
2019-05-14T17:01:50.866Z,17.60
2019-05-14T17:04:19.083Z,17.60
2019-05-14T17:06:49.167Z,17.50
2019-05-14T17:09:15.707Z,17.20
2019-05-14T17:11:43.696Z,17.00
2019-05-14T17:14:10.830Z,16.80
2019-05-14T17:16:38.285Z,16.70
2019-05-14T17:19:05.854Z,16.60
2019-05-14T17:21:33.214Z,16.60
2019-05-14T17:24:00.480Z,16.60
2019-05-14T17:26:29.194Z,16.60
2019-05-14T17:28:59.441Z,16.70
2019-05-14T17:31:25.792Z,16.70
2019-05-14T17:33:53.201Z,16.70
2019-05-14T17:36:20.753Z,16.50
2019-05-14T17:38:49.157Z,16.30
2019-05-14T17:41:19.228Z,16.30
2019-05-14T17:43:46.332Z,16.30
2019-05-14T17:46:14.124Z,16.20
2019-05-14T17:48:41.495Z,16.10
2019-05-14T17:51:09.532Z,16.00
2019-05-14T17:53:38.563Z,15.70
2019-05-14T17:56:08.227Z,15.50
2019-05-14T17:58:35.021Z,15.30
2019-05-14T18:01:02.206Z,15.10
2019-05-14T18:03:29.901Z,14.90
2019-05-14T18:05:58.158Z,14.60
2019-05-14T18:08:25.780Z,14.40
2019-05-14T18:10:53.354Z,14.30
2019-05-14T18:13:20.462Z,14.10
2019-05-14T18:15:48.826Z,14.10
2019-05-14T18:18:18.343Z,13.90
2019-05-14T18:20:44.922Z,13.90
2019-05-14T18:23:12.601Z,13.80
2019-05-14T18:25:40.231Z,13.70
2019-05-14T18:28:09.275Z,13.60
2019-05-14T18:30:38.512Z,13.60
2019-05-14T18:33:05.281Z,13.50
2019-05-14T18:35:32.356Z,13.40
2019-05-14T18:38:00.857Z,13.20
2019-05-14T18:40:28.197Z,13.20
2019-05-14T18:42:55.431Z,13.10
2019-05-14T18:45:23.809Z,13.00
2019-05-14T18:47:51.362Z,12.90
2019-05-14T18:50:19.746Z,12.90
2019-05-14T18:52:48.518Z,12.70
2019-05-14T18:55:18.698Z,12.60
2019-05-14T18:57:45.661Z,12.60
2019-05-14T19:00:13.797Z,12.50
2019-05-14T19:02:41.031Z,12.40
2019-05-14T19:05:08.766Z,12.30
2019-05-14T19:07:38.687Z,12.20
2019-05-14T19:10:05.971Z,12.20
2019-05-14T19:12:33.466Z,12.10
2019-05-14T19:15:00.796Z,12.00
2019-05-14T19:17:28.350Z,11.90
2019-05-14T19:19:55.559Z,11.80
2019-05-14T19:22:22.807Z,11.70
2019-05-14T19:24:50.212Z,11.60
2019-05-14T19:27:17.567Z,11.50
2019-05-14T19:29:45.054Z,11.40
2019-05-14T19:32:12.198Z,11.30
2019-05-14T19:34:39.626Z,11.30
2019-05-14T19:37:08.308Z,11.20
2019-05-14T19:39:38.384Z,11.10
2019-05-14T19:42:05.056Z,11.00
2019-05-14T19:44:32.899Z,11.00
2019-05-14T19:47:00.407Z,10.90
2019-05-14T19:49:28.855Z,10.80
2019-05-14T19:51:58.695Z,10.70
2019-05-14T19:54:29.039Z,10.60
2019-05-14T19:56:57.352Z,10.60
2019-05-14T19:59:26.013Z,10.50
2019-05-14T20:01:52.957Z,10.40
2019-05-14T20:04:20.129Z,10.40
2019-05-14T20:06:49.395Z,10.40
2019-05-14T20:09:17.865Z,10.30
2019-05-14T20:11:45.183Z,10.30
2019-05-14T20:14:12.211Z,10.20
2019-05-14T20:16:39.518Z,10.20
2019-05-14T20:19:08.850Z,10.10
2019-05-14T20:21:36.106Z,10.10
2019-05-14T20:24:03.426Z,10.00
2019-05-14T20:26:30.980Z,9.90
2019-05-14T20:28:59.053Z,9.90
2019-05-14T20:31:26.185Z,9.90
2019-05-14T20:33:53.351Z,9.90
2019-05-14T20:36:20.937Z,9.90
2019-05-14T20:38:48.272Z,9.80
2019-05-14T20:41:17.904Z,9.80
2019-05-14T20:43:48.443Z,9.80
2019-05-14T20:46:18.321Z,9.70
2019-05-14T20:48:44.726Z,9.70
2019-05-14T20:51:11.982Z,9.70
2019-05-14T20:53:39.771Z,9.70
2019-05-14T20:56:08.371Z,9.70
2019-05-14T20:58:35.888Z,9.60
2019-05-14T21:01:03.087Z,9.60
2019-05-14T21:03:30.486Z,9.60
2019-05-14T21:05:58.366Z,9.50
2019-05-14T21:08:25.398Z,9.50
2019-05-14T21:10:53.047Z,9.40
2019-05-14T21:13:20.432Z,9.50
2019-05-14T21:15:48.348Z,9.40
2019-05-14T21:18:15.889Z,9.40
2019-05-14T21:20:43.434Z,9.40
2019-05-14T21:23:10.362Z,9.40
2019-05-14T21:25:38.795Z,9.40
2019-05-14T21:28:09.106Z,9.40
2019-05-14T21:30:35.918Z,9.30
2019-05-14T21:33:03.079Z,9.30
2019-05-14T21:35:33.777Z,9.20
2019-05-14T21:38:00.893Z,9.20
2019-05-14T21:40:31.674Z,9.10
2019-05-14T21:42:57.955Z,9.00
2019-05-14T21:45:28.433Z,9.00
2019-05-14T21:47:55.832Z,8.90
2019-05-14T21:50:23.191Z,8.80
2019-05-14T21:52:50.208Z,8.60
2019-05-14T21:55:19.678Z,8.60
2019-05-14T21:57:54.191Z,8.50
2019-05-14T22:00:23.935Z,8.40
2019-05-14T22:02:53.393Z,8.30
2019-05-14T22:05:20.922Z,8.20
2019-05-14T22:07:48.538Z,8.20
2019-05-14T22:10:16.047Z,8.10
2019-05-14T22:12:43.230Z,8.10
2019-05-14T22:15:10.653Z,8.00
2019-05-14T22:17:38.367Z,7.90
2019-05-14T22:20:07.846Z,7.80
2019-05-14T22:22:34.835Z,7.70
2019-05-14T22:25:03.320Z,7.70
2019-05-14T22:27:31.798Z,7.60
2019-05-14T22:29:59.061Z,7.70
2019-05-14T22:32:28.483Z,7.60
2019-05-14T22:34:55.305Z,7.50
2019-05-14T22:37:22.634Z,7.50
2019-05-14T22:39:49.890Z,7.40
2019-05-14T22:42:18.861Z,7.40
2019-05-14T22:44:50.195Z,7.30
2019-05-14T22:47:15.246Z,7.30
2019-05-14T22:49:43.136Z,7.30
2019-05-14T22:52:10.456Z,7.30
2019-05-14T22:54:38.620Z,7.30
2019-05-14T22:57:06.028Z,7.20
2019-05-14T22:59:33.423Z,7.20
2019-05-14T23:02:00.343Z,7.20
2019-05-14T23:04:28.980Z,7.20
2019-05-14T23:06:58.526Z,7.20
2019-05-14T23:09:25.419Z,7.10
2019-05-14T23:11:52.673Z,7.10
2019-05-14T23:14:20.214Z,7.00
2019-05-14T23:16:49.184Z,6.90
2019-05-14T23:19:18.661Z,6.80
2019-05-14T23:21:45.863Z,6.70
2019-05-14T23:24:12.848Z,6.70
2019-05-14T23:26:39.879Z,6.60
2019-05-14T23:29:07.305Z,6.60
2019-05-14T23:31:34.762Z,6.50
2019-05-14T23:34:02.158Z,6.40
2019-05-14T23:36:29.312Z,6.30
2019-05-14T23:38:59.137Z,6.10
2019-05-14T23:41:28.484Z,6.00
2019-05-14T23:43:55.115Z,6.00
2019-05-14T23:46:25.706Z,6.00
2019-05-14T23:48:52.895Z,6.00
2019-05-14T23:51:19.958Z,5.90
2019-05-14T23:53:48.287Z,5.90
2019-05-14T23:56:15.679Z,5.90
2019-05-14T23:58:54.937Z,5.90
